createdAt,value
2018-08-04T00:01:29.054Z,23.10
2018-08-04T00:03:58.012Z,23.00
2018-08-04T00:06:26.974Z,23.00
2018-08-04T00:08:56.119Z,23.00
2018-08-04T00:11:25.100Z,23.00
2018-08-04T00:13:54.241Z,22.90
2018-08-04T00:16:23.245Z,22.90
2018-08-04T00:18:52.211Z,22.80
2018-08-04T00:21:21.369Z,22.80
2018-08-04T00:23:50.646Z,22.70
2018-08-04T00:26:19.848Z,22.70
2018-08-04T00:28:48.940Z,22.60
2018-08-04T00:31:17.949Z,22.60
2018-08-04T00:33:55.131Z,22.50
2018-08-04T00:36:24.326Z,22.50
2018-08-04T00:38:53.616Z,22.40
2018-08-04T00:41:22.591Z,22.40
2018-08-04T00:43:52.349Z,22.30
2018-08-04T00:46:21.527Z,22.20
2018-08-04T00:48:50.527Z,22.20
2018-08-04T00:51:19.497Z,22.10
2018-08-04T00:53:48.437Z,22.10
2018-08-04T00:56:17.539Z,22.00
2018-08-04T00:58:46.855Z,21.90
2018-08-04T01:01:15.884Z,21.90
2018-08-04T01:03:44.953Z,21.80
2018-08-04T01:06:13.909Z,21.80
2018-08-04T01:08:42.904Z,21.80
2018-08-04T01:11:11.849Z,21.70
2018-08-04T01:13:40.838Z,21.60
2018-08-04T01:16:09.994Z,21.50
2018-08-04T01:18:39.022Z,21.50
2018-08-04T01:21:08.211Z,21.50
2018-08-04T01:23:37.193Z,21.50
2018-08-04T01:26:06.173Z,21.40
2018-08-04T01:28:35.077Z,21.40
2018-08-04T01:31:04.047Z,21.30
2018-08-04T01:33:33.033Z,21.30
2018-08-04T01:36:02.104Z,21.20
2018-08-04T01:38:31.037Z,21.20
2018-08-04T01:41:00.045Z,21.10
2018-08-04T01:43:29.194Z,21.00
2018-08-04T01:48:26.798Z,20.90
2018-08-04T01:50:55.792Z,20.90
2018-08-04T01:53:24.760Z,20.80
2018-08-04T01:58:22.448Z,20.80
2018-08-04T02:00:51.824Z,20.70
2018-08-04T02:03:21.093Z,20.70
2018-08-04T02:05:50.315Z,20.70
2018-08-04T02:10:48.552Z,20.60
2018-08-04T02:13:17.757Z,20.50
2018-08-04T02:15:46.850Z,20.50
2018-08-04T02:18:15.975Z,20.50
2018-08-04T02:20:44.952Z,20.40
2018-08-04T02:23:13.980Z,20.40
2018-08-04T02:25:42.953Z,20.30
2018-08-04T02:28:12.239Z,20.30
2018-08-04T02:30:41.194Z,20.30
2018-08-04T02:33:10.167Z,20.30
2018-08-04T02:35:39.182Z,20.20
2018-08-04T02:40:36.816Z,20.20
2018-08-04T02:43:06.014Z,20.10
2018-08-04T02:45:34.982Z,20.10
2018-08-04T02:48:04.026Z,20.10
2018-08-04T02:50:33.045Z,20.10
2018-08-04T02:53:02.294Z,20.10
2018-08-04T02:55:31.293Z,20.00
2018-08-04T02:58:00.232Z,20.00
2018-08-04T03:00:29.326Z,20.00
2018-08-04T03:02:58.267Z,20.00
2018-08-04T03:05:27.316Z,19.90
2018-08-04T03:07:56.245Z,20.00
2018-08-04T03:10:25.196Z,20.10
2018-08-04T03:12:54.112Z,20.10
2018-08-04T03:15:23.164Z,20.10
2018-08-04T03:17:52.225Z,20.20
2018-08-04T03:20:21.222Z,20.10
2018-08-04T03:22:50.177Z,20.20
2018-08-04T03:25:19.275Z,20.20
2018-08-04T03:27:48.224Z,20.10
2018-08-04T03:30:17.326Z,20.20
2018-08-04T03:32:48.398Z,20.20
2018-08-04T03:35:17.531Z,20.20
2018-08-04T03:37:47.669Z,20.10
2018-08-04T03:40:16.717Z,20.10
2018-08-04T03:42:45.779Z,20.10
2018-08-04T03:45:15.046Z,20.10
2018-08-04T03:47:44.065Z,20.10
2018-08-04T03:50:13.041Z,20.10
2018-08-04T03:52:42.069Z,20.10
2018-08-04T03:55:11.146Z,20.10
2018-08-04T03:57:40.067Z,20.10
2018-08-04T04:00:09.120Z,20.00
2018-08-04T04:02:38.117Z,20.00
2018-08-04T04:05:07.071Z,20.10
2018-08-04T04:07:36.057Z,20.10
2018-08-04T04:10:05.245Z,20.10
2018-08-04T04:12:38.246Z,20.20
2018-08-04T04:15:07.462Z,20.10
2018-08-04T04:17:46.207Z,20.10
2018-08-04T04:20:16.653Z,20.10
2018-08-04T04:22:45.586Z,20.00
2018-08-04T04:25:14.577Z,20.00
2018-08-04T04:27:44.118Z,20.00
2018-08-04T04:30:13.796Z,20.10
2018-08-04T04:32:42.772Z,20.00
2018-08-04T04:35:11.905Z,20.00
2018-08-04T04:37:40.872Z,20.00
2018-08-04T04:40:09.836Z,20.00
2018-08-04T04:42:38.776Z,20.00
2018-08-04T04:45:07.726Z,20.00
2018-08-04T04:47:36.725Z,20.10
2018-08-04T04:50:05.701Z,20.10
2018-08-04T04:52:34.650Z,20.10
2018-08-04T04:55:03.617Z,20.20
2018-08-04T04:57:32.713Z,20.20
2018-08-04T05:00:01.700Z,20.30
2018-08-04T05:02:30.713Z,20.30
2018-08-04T05:04:59.775Z,20.30
2018-08-04T05:07:28.874Z,20.40
2018-08-04T05:09:57.825Z,20.40
2018-08-04T05:12:26.772Z,20.40
2018-08-04T05:14:55.700Z,20.50
2018-08-04T05:17:24.653Z,20.50
2018-08-04T05:19:54.098Z,20.60
2018-08-04T05:22:23.077Z,20.50
2018-08-04T05:24:52.022Z,20.60
2018-08-04T05:27:21.194Z,20.60
2018-08-04T05:29:50.316Z,20.70
2018-08-04T05:32:19.247Z,20.70
2018-08-04T05:37:17.106Z,20.80
2018-08-04T05:39:46.094Z,20.80
2018-08-04T05:42:15.509Z,20.90
2018-08-04T05:44:44.479Z,21.00
2018-08-04T05:47:13.579Z,21.10
2018-08-04T05:49:42.712Z,21.30
2018-08-04T05:54:40.611Z,21.90
2018-08-04T05:57:09.771Z,22.20
2018-08-04T05:59:38.968Z,22.40
2018-08-04T06:04:36.991Z,22.90
2018-08-04T06:07:08.303Z,23.10
2018-08-04T06:09:37.707Z,23.20
2018-08-04T06:12:07.129Z,23.40
2018-08-04T06:14:36.542Z,23.60
2018-08-04T06:17:05.885Z,23.80
2018-08-04T06:19:34.898Z,24.00
2018-08-04T06:22:03.847Z,24.20
2018-08-04T06:24:32.885Z,24.20
2018-08-04T06:27:01.921Z,24.20
2018-08-04T06:29:30.886Z,24.10
2018-08-04T06:32:00.063Z,24.20
2018-08-04T06:34:29.408Z,24.20
2018-08-04T06:36:58.603Z,24.20
2018-08-04T06:39:27.828Z,24.20
2018-08-04T06:46:54.403Z,24.50
2018-08-04T06:49:23.321Z,24.80
2018-08-04T06:51:52.698Z,24.80
2018-08-04T06:54:21.752Z,24.90
2018-08-04T06:56:50.813Z,25.00
2018-08-04T06:59:19.858Z,25.00
2018-08-04T07:01:49.327Z,25.20
2018-08-04T07:04:18.544Z,25.20
2018-08-04T07:06:47.656Z,25.30
2018-08-04T07:09:16.577Z,25.50
2018-08-04T07:14:14.257Z,25.90
2018-08-04T07:16:43.496Z,25.90
2018-08-04T07:19:12.459Z,26.00
2018-08-04T07:21:41.449Z,25.90
2018-08-04T07:24:10.387Z,26.00
2018-08-04T07:26:39.645Z,26.10
2018-08-04T07:29:08.805Z,26.60
2018-08-04T07:31:38.017Z,26.90
2018-08-04T07:34:06.996Z,27.20
2018-08-04T07:39:06.680Z,27.80
2018-08-04T07:41:35.783Z,28.10
2018-08-04T07:44:05.779Z,28.30
2018-08-04T07:46:35.046Z,28.50
2018-08-04T07:49:04.129Z,28.60
2018-08-04T07:51:33.077Z,28.90
2018-08-04T07:54:02.161Z,29.10
2018-08-04T07:56:31.276Z,29.40
2018-08-04T07:59:00.433Z,29.60
2018-08-04T08:01:29.461Z,29.70
2018-08-04T08:03:58.650Z,29.80
2018-08-04T08:06:27.839Z,30.00
2018-08-04T08:08:56.948Z,30.00
2018-08-04T08:11:26.090Z,30.10
2018-08-04T08:13:55.117Z,30.20
2018-08-04T08:16:24.952Z,30.30
2018-08-04T08:18:53.983Z,30.50
2018-08-04T08:21:22.990Z,30.70
2018-08-04T08:23:52.031Z,30.60
2018-08-04T08:28:49.722Z,31.00
2018-08-04T08:31:19.367Z,31.10
2018-08-04T08:33:48.840Z,31.40
2018-08-04T08:36:18.779Z,31.30
2018-08-04T08:38:48.370Z,31.40
2018-08-04T08:41:17.858Z,31.50
2018-08-04T08:43:47.566Z,31.70
2018-08-04T08:46:17.529Z,31.80
2018-08-04T08:48:47.141Z,31.80
2018-08-04T08:51:16.787Z,31.90
2018-08-04T08:53:46.705Z,31.90
2018-08-04T08:56:16.593Z,32.00
2018-08-04T08:58:46.601Z,32.10
2018-08-04T09:01:15.936Z,32.40
2018-08-04T09:03:45.433Z,32.60
2018-08-04T09:08:43.024Z,32.70
2018-08-04T09:13:40.917Z,32.30
2018-08-04T09:16:10.155Z,31.90
2018-08-04T09:18:39.109Z,32.00
2018-08-04T09:21:08.083Z,32.30
2018-08-04T09:23:37.042Z,32.60
2018-08-04T09:28:34.647Z,32.90
2018-08-04T09:31:03.698Z,33.10
2018-08-04T09:33:32.650Z,33.10
2018-08-04T09:36:01.586Z,33.40
2018-08-04T09:38:30.730Z,33.40
2018-08-04T09:40:59.788Z,33.40
2018-08-04T09:43:28.795Z,33.50
2018-08-04T09:48:26.461Z,34.00
2018-08-04T09:50:55.745Z,34.00
2018-08-04T09:53:25.900Z,33.90
2018-08-04T09:55:54.960Z,33.90
2018-08-04T09:58:25.121Z,33.90
2018-08-04T10:01:00.669Z,33.90
2018-08-04T10:03:30.758Z,34.20
2018-08-04T10:06:00.151Z,34.50
2018-08-04T10:08:29.211Z,34.70
2018-08-04T10:10:58.342Z,34.80
2018-08-04T10:13:27.561Z,34.70
2018-08-04T10:15:56.591Z,34.70
2018-08-04T10:18:25.678Z,34.50
2018-08-04T10:20:55.061Z,34.60
2018-08-04T10:23:24.072Z,34.70
2018-08-04T10:25:53.114Z,34.60
2018-08-04T10:28:22.237Z,34.50
2018-08-04T10:30:55.202Z,34.50
2018-08-04T10:33:24.256Z,34.70
2018-08-04T10:35:54.026Z,34.70
2018-08-04T10:40:51.749Z,34.90
2018-08-04T10:43:20.839Z,34.70
2018-08-04T10:45:49.801Z,34.70
2018-08-04T10:48:18.994Z,34.90
2018-08-04T10:50:47.970Z,34.90
2018-08-04T10:53:17.151Z,35.00
2018-08-04T10:55:46.181Z,35.20
2018-08-04T10:58:15.287Z,35.40
2018-08-04T11:00:44.288Z,35.60
2018-08-04T11:03:13.352Z,35.80
2018-08-04T11:05:42.333Z,35.90
2018-08-04T11:08:11.457Z,35.90
2018-08-04T11:10:40.446Z,36.10
2018-08-04T11:13:09.533Z,36.20
2018-08-04T11:18:07.641Z,35.60
2018-08-04T11:20:36.685Z,35.60
2018-08-04T11:23:05.938Z,35.70
2018-08-04T11:25:35.255Z,35.60
2018-08-04T11:28:04.272Z,35.50
2018-08-04T11:30:33.514Z,35.50
2018-08-04T11:35:31.425Z,35.70
2018-08-04T11:38:00.382Z,35.90
2018-08-04T11:40:29.338Z,35.90
2018-08-04T11:42:58.301Z,36.10
2018-08-04T11:45:27.325Z,36.00
2018-08-04T11:47:56.359Z,36.20
2018-08-04T11:50:25.400Z,36.30
2018-08-04T11:52:54.414Z,36.40
2018-08-04T11:55:23.395Z,36.60
2018-08-04T11:57:52.446Z,36.80
2018-08-04T12:00:21.454Z,36.80
2018-08-04T12:02:50.686Z,36.50
2018-08-04T12:05:19.834Z,36.30
2018-08-04T12:07:48.838Z,36.30
2018-08-04T12:10:17.844Z,36.10
2018-08-04T12:12:47.033Z,36.30
2018-08-04T12:15:16.001Z,36.30
2018-08-04T12:17:45.016Z,36.30
2018-08-04T12:20:14.187Z,36.00
2018-08-04T12:22:43.475Z,36.10
2018-08-04T12:25:12.447Z,36.10
2018-08-04T12:27:41.576Z,36.40
2018-08-04T12:30:11.055Z,36.40
2018-08-04T12:32:41.219Z,36.50
2018-08-04T12:35:10.400Z,36.30
2018-08-04T12:37:39.665Z,36.40
2018-08-04T12:40:08.560Z,36.40
2018-08-04T12:42:37.734Z,36.40
2018-08-04T12:47:36.177Z,36.60
2018-08-04T12:50:05.546Z,36.50
2018-08-04T12:52:34.520Z,36.60
2018-08-04T12:55:03.573Z,36.60
2018-08-04T12:57:32.628Z,36.60
2018-08-04T13:00:01.796Z,36.70
2018-08-04T13:02:30.812Z,36.40
2018-08-04T13:04:59.898Z,36.30
2018-08-04T13:07:28.893Z,36.30
2018-08-04T13:09:58.014Z,36.10
2018-08-04T13:12:27.164Z,36.30
2018-08-04T13:14:56.296Z,36.20
2018-08-04T13:17:25.739Z,36.40
2018-08-04T13:22:24.483Z,36.70
2018-08-04T13:24:53.512Z,36.70
2018-08-04T13:29:51.312Z,36.30
2018-08-04T13:32:20.400Z,36.40
2018-08-04T13:37:18.328Z,36.50
2018-08-04T13:39:47.500Z,36.30
2018-08-04T13:42:16.533Z,36.20
2018-08-04T13:44:45.539Z,36.30
2018-08-04T13:47:14.688Z,36.50
2018-08-04T13:49:43.745Z,36.70
2018-08-04T13:52:13.133Z,36.90
2018-08-04T13:54:42.082Z,36.70
2018-08-04T13:57:11.080Z,36.50
2018-08-04T13:59:40.299Z,36.20
2018-08-04T14:02:09.381Z,36.00
2018-08-04T14:07:08.360Z,36.40
2018-08-04T14:09:37.527Z,36.50
2018-08-04T14:12:06.958Z,36.80
2018-08-04T14:14:35.984Z,36.90
2018-08-04T14:17:05.107Z,37.00
2018-08-04T14:19:34.281Z,36.80
2018-08-04T14:22:03.335Z,36.70
2018-08-04T14:24:32.480Z,36.60
2018-08-04T14:27:01.550Z,36.60
2018-08-04T14:29:30.726Z,36.60
2018-08-04T14:31:59.865Z,36.50
2018-08-04T14:34:29.891Z,36.40
2018-08-04T14:36:58.927Z,36.20
2018-08-04T14:39:28.100Z,35.90
2018-08-04T14:44:26.429Z,35.70
2018-08-04T14:46:55.620Z,35.60
2018-08-04T14:49:24.818Z,35.40
2018-08-04T14:51:53.817Z,35.30
2018-08-04T14:54:22.979Z,35.50
2018-08-04T14:56:51.962Z,35.60
2018-08-04T15:01:49.824Z,35.90
2018-08-04T15:04:18.952Z,36.00
2018-08-04T15:06:47.978Z,36.00
2018-08-04T15:09:16.937Z,35.90
2018-08-04T15:11:45.917Z,36.00
2018-08-04T15:16:44.030Z,36.00
2018-08-04T15:19:13.075Z,36.00
2018-08-04T15:24:11.181Z,35.90
2018-08-04T15:26:40.365Z,35.80
2018-08-04T15:31:38.589Z,35.70
2018-08-04T15:34:07.834Z,35.70
2018-08-04T15:36:36.985Z,35.70
2018-08-04T15:39:08.478Z,35.60
2018-08-04T15:41:37.500Z,35.50
2018-08-04T15:44:06.546Z,35.20
2018-08-04T15:46:35.509Z,35.10
2018-08-04T15:49:04.655Z,34.90
2018-08-04T15:51:34.587Z,34.80
2018-08-04T15:54:03.870Z,34.60
2018-08-04T15:56:33.302Z,34.40
2018-08-04T15:59:02.353Z,34.20
2018-08-04T16:01:31.290Z,34.00
2018-08-04T16:06:29.042Z,33.60
2018-08-04T16:08:58.042Z,33.40
2018-08-04T16:11:27.010Z,33.50
2018-08-04T16:13:56.356Z,33.50
2018-08-04T16:16:25.336Z,33.40
2018-08-04T16:18:54.747Z,33.20
2018-08-04T16:21:23.771Z,33.00
2018-08-04T16:23:53.943Z,33.00
2018-08-04T16:26:23.567Z,32.90
2018-08-04T16:28:52.835Z,32.70
2018-08-04T16:36:19.053Z,32.10
2018-08-04T16:38:49.781Z,31.80
2018-08-04T16:41:19.215Z,31.60
2018-08-04T16:43:48.237Z,31.50
2018-08-04T16:46:17.453Z,31.40
2018-08-04T16:48:46.732Z,31.30
2018-08-04T16:51:15.789Z,31.20
2018-08-04T16:53:44.785Z,31.00
2018-08-04T16:56:14.397Z,30.90
2018-08-04T16:58:43.368Z,30.70
2018-08-04T17:01:12.354Z,30.60
2018-08-04T17:03:41.479Z,30.50
2018-08-04T17:06:10.502Z,30.40
2018-08-04T17:08:39.487Z,30.30
2018-08-04T17:11:08.475Z,30.20
2018-08-04T17:13:38.738Z,30.20
2018-08-04T17:16:07.740Z,30.10
2018-08-04T17:18:36.786Z,29.80
2018-08-04T17:21:05.774Z,29.70
2018-08-04T17:23:34.742Z,29.70
2018-08-04T17:28:32.293Z,29.80
2018-08-04T17:31:01.877Z,29.70
2018-08-04T17:33:30.869Z,29.70
2018-08-04T17:36:02.210Z,29.50
2018-08-04T17:38:31.276Z,29.40
2018-08-04T17:41:00.346Z,29.30
2018-08-04T17:45:59.023Z,29.10
2018-08-04T17:48:28.006Z,29.10
2018-08-04T17:53:25.654Z,29.00
2018-08-04T17:55:54.629Z,28.90
2018-08-04T17:58:23.643Z,28.80
2018-08-04T18:00:52.883Z,28.60
2018-08-04T18:03:21.823Z,28.60
2018-08-04T18:05:50.812Z,28.50
2018-08-04T18:08:19.950Z,28.40
2018-08-04T18:10:48.959Z,28.30
2018-08-04T18:13:17.983Z,28.10
2018-08-04T18:15:47.540Z,28.00
2018-08-04T18:18:17.692Z,27.80
2018-08-04T18:20:46.649Z,27.80
2018-08-04T18:23:15.680Z,27.70
2018-08-04T18:25:44.611Z,27.60
2018-08-04T18:28:14.785Z,27.50
2018-08-04T18:30:43.889Z,27.30
2018-08-04T18:33:12.949Z,27.30
2018-08-04T18:38:10.697Z,27.10
2018-08-04T18:40:39.809Z,27.00
2018-08-04T18:43:09.040Z,26.90
2018-08-04T18:45:38.145Z,26.90
2018-08-04T18:48:07.107Z,26.80
2018-08-04T18:50:36.079Z,26.60
2018-08-04T18:53:05.114Z,26.50
2018-08-04T18:55:34.218Z,26.50
2018-08-04T18:58:03.165Z,26.50
2018-08-04T19:00:32.177Z,26.40
2018-08-04T19:03:01.182Z,26.40
2018-08-04T19:05:30.347Z,26.20
2018-08-04T19:10:28.256Z,26.00
2018-08-04T19:12:57.537Z,25.90
2018-08-04T19:15:26.527Z,25.90
2018-08-04T19:17:55.541Z,25.80
2018-08-04T19:20:24.520Z,25.60
2018-08-04T19:22:53.481Z,25.60
2018-08-04T19:25:22.920Z,25.60
2018-08-04T19:27:51.913Z,25.50
2018-08-04T19:32:49.515Z,25.30
2018-08-04T19:35:18.529Z,25.30
2018-08-04T19:37:47.585Z,25.20
2018-08-04T19:40:16.893Z,25.10
2018-08-04T19:42:45.866Z,25.10
2018-08-04T19:45:14.942Z,25.00
2018-08-04T19:47:44.030Z,24.90
2018-08-04T19:50:13.020Z,24.80
2018-08-04T19:52:42.053Z,24.70
2018-08-04T19:55:11.045Z,24.70
2018-08-04T19:57:40.023Z,24.70
2018-08-04T20:00:09.268Z,24.60
2018-08-04T20:02:38.255Z,24.50
2018-08-04T20:05:07.211Z,24.40
2018-08-04T20:07:36.221Z,24.40
2018-08-04T20:10:05.217Z,24.40
2018-08-04T20:12:34.186Z,24.30
2018-08-04T20:15:03.121Z,24.30
2018-08-04T20:17:32.202Z,24.30
2018-08-04T20:20:01.137Z,24.20
2018-08-04T20:22:30.287Z,24.10
2018-08-04T20:24:59.217Z,24.00
2018-08-04T20:27:28.245Z,24.00
2018-08-04T20:29:57.549Z,24.00
2018-08-04T20:32:26.533Z,23.80
2018-08-04T20:34:55.569Z,23.80
2018-08-04T20:39:53.269Z,23.70
2018-08-04T20:42:22.218Z,23.60
2018-08-04T20:44:51.222Z,23.50
2018-08-04T20:47:20.221Z,23.50
2018-08-04T20:49:49.239Z,23.50
2018-08-04T20:52:18.220Z,23.40
2018-08-04T20:54:47.296Z,23.30
2018-08-04T20:59:45.025Z,23.30
2018-08-04T21:02:14.143Z,23.20
2018-08-04T21:04:43.193Z,23.20
2018-08-04T21:07:12.257Z,23.10
2018-08-04T21:09:41.455Z,23.10
2018-08-04T21:14:39.267Z,23.00
2018-08-04T21:17:08.338Z,23.00
2018-08-04T21:19:37.433Z,22.90
2018-08-04T21:22:06.719Z,22.90
2018-08-04T21:24:35.796Z,22.90
2018-08-04T21:27:05.018Z,22.80
2018-08-04T21:29:34.079Z,22.70
2018-08-04T21:32:03.030Z,22.70
2018-08-04T21:34:32.104Z,22.70
2018-08-04T21:37:01.109Z,22.70
2018-08-04T21:39:30.079Z,22.60
2018-08-04T21:41:59.007Z,22.50
2018-08-04T21:44:28.033Z,22.40
2018-08-04T21:46:57.077Z,22.40
2018-08-04T21:49:26.164Z,22.40
2018-08-04T21:51:55.074Z,22.30
2018-08-04T21:54:24.111Z,22.30
2018-08-04T21:59:22.016Z,22.20
2018-08-04T22:01:54.642Z,22.10
2018-08-04T22:04:23.877Z,22.10
2018-08-04T22:08:01.989Z,22.10
2018-08-04T22:10:30.973Z,22.00
2018-08-04T22:13:00.195Z,22.00
2018-08-04T22:15:30.098Z,21.90
2018-08-04T22:17:59.059Z,21.90
2018-08-04T22:20:28.639Z,21.90
2018-08-04T22:22:57.994Z,21.80
2018-08-04T22:25:28.265Z,21.80
2018-08-04T22:27:58.134Z,21.80
2018-08-04T22:30:27.282Z,21.80
2018-08-04T22:32:56.241Z,21.70
2018-08-04T22:35:25.382Z,21.60
2018-08-04T22:37:54.417Z,21.60
2018-08-04T22:40:23.462Z,21.60
2018-08-04T22:42:52.401Z,21.50
2018-08-04T22:45:47.477Z,21.50
2018-08-04T22:48:17.671Z,21.40
2018-08-04T22:50:46.849Z,21.30
2018-08-04T22:53:16.489Z,21.30
2018-08-04T22:55:45.441Z,21.20
2018-08-04T22:58:14.420Z,21.20
2018-08-04T23:00:44.678Z,21.10
2018-08-04T23:03:14.213Z,21.10
2018-08-04T23:05:43.216Z,21.10
2018-08-04T23:08:13.361Z,21.00
2018-08-04T23:10:42.972Z,20.90
2018-08-04T23:13:12.477Z,20.90
2018-08-04T23:15:41.529Z,20.90
2018-08-04T23:20:39.359Z,20.80
2018-08-04T23:23:09.379Z,20.80
2018-08-04T23:25:38.530Z,20.70
2018-08-04T23:28:07.819Z,20.70
2018-08-04T23:30:36.915Z,20.70
2018-08-04T23:35:34.658Z,20.80
2018-08-04T23:38:03.634Z,20.80
2018-08-04T23:40:32.761Z,20.80
2018-08-04T23:45:30.426Z,20.90
2018-08-04T23:47:59.465Z,21.00
2018-08-04T23:50:28.491Z,21.00
2018-08-04T23:52:57.470Z,21.00
2018-08-04T23:55:26.469Z,21.00
2018-08-04T23:57:55.488Z,20.90
